createdAt,value
2022-11-25T00:01:33.434Z,31.37
2022-11-25T00:04:00.464Z,32.57
2022-11-25T00:06:31.981Z,33.30
2022-11-25T00:09:10.035Z,33.30
2022-11-25T00:11:37.714Z,31.53
2022-11-25T00:14:06.916Z,32.63
2022-11-25T00:16:33.693Z,32.40
2022-11-25T00:19:00.510Z,32.30
2022-11-25T00:21:29.616Z,32.07
2022-11-25T00:24:00.750Z,31.70
2022-11-25T00:26:28.346Z,32.43
2022-11-25T00:28:57.715Z,33.50
2022-11-25T00:31:26.004Z,34.07
2022-11-25T00:33:52.842Z,34.23
2022-11-25T00:36:23.486Z,33.60
2022-11-25T00:38:59.460Z,32.30
2022-11-25T00:41:45.404Z,33.13
2022-11-25T00:44:32.001Z,33.57
2022-11-25T00:46:58.828Z,32.53
2022-11-25T00:49:25.581Z,31.73
2022-11-25T00:51:52.272Z,32.93
2022-11-25T00:54:19.262Z,31.00
2022-11-25T00:56:46.010Z,31.83
2022-11-25T00:59:12.720Z,32.00
2022-11-25T01:01:39.492Z,30.33
2022-11-25T01:04:06.410Z,28.23
2022-11-25T01:06:33.665Z,29.13
2022-11-25T01:09:02.920Z,28.50
2022-11-25T01:11:29.667Z,27.90
2022-11-25T01:14:00.790Z,28.97
2022-11-25T01:16:30.878Z,30.17
2022-11-25T01:19:00.471Z,28.30
2022-11-25T01:21:29.091Z,28.47
2022-11-25T01:23:55.819Z,29.57
2022-11-25T01:26:23.733Z,29.77
2022-11-25T01:28:54.028Z,30.40
2022-11-25T01:31:21.819Z,28.77
2022-11-25T01:33:52.244Z,29.67
2022-11-25T01:36:21.549Z,28.10
2022-11-25T01:38:51.054Z,28.60
2022-11-25T01:41:17.866Z,29.47
2022-11-25T01:43:44.573Z,28.20
2022-11-25T01:46:21.347Z,28.43
2022-11-25T01:48:50.304Z,28.90
2022-11-25T01:51:41.120Z,29.23
2022-11-25T01:54:08.302Z,28.03
2022-11-25T01:56:36.665Z,30.50
2022-11-25T01:59:03.357Z,29.03
2022-11-25T02:01:32.498Z,32.03
2022-11-25T02:03:59.253Z,31.13
2022-11-25T02:06:40.605Z,32.33
2022-11-25T02:09:07.982Z,30.30
2022-11-25T02:11:38.884Z,31.47
2022-11-25T02:14:05.601Z,32.33
2022-11-25T02:16:34.666Z,31.50
2022-11-25T02:19:03.583Z,31.67
2022-11-25T02:21:34.028Z,31.33
2022-11-25T02:24:07.509Z,32.23
2022-11-25T02:26:34.205Z,30.93
2022-11-25T02:29:00.921Z,32.40
2022-11-25T02:31:29.878Z,33.40
2022-11-25T02:33:56.617Z,32.30
2022-11-25T02:36:23.328Z,33.10
2022-11-25T02:38:57.922Z,33.17
2022-11-25T02:41:36.039Z,33.97
2022-11-25T02:44:02.881Z,33.07
2022-11-25T02:46:29.794Z,32.13
2022-11-25T02:49:12.712Z,33.23
2022-11-25T02:51:41.303Z,32.87
2022-11-25T02:54:08.156Z,34.13
2022-11-25T02:56:35.424Z,33.80
2022-11-25T02:59:04.730Z,33.83
2022-11-25T03:01:35.202Z,33.37
2022-11-25T03:04:04.324Z,32.90
2022-11-25T03:06:31.200Z,35.07
2022-11-25T03:08:57.990Z,35.73
2022-11-25T03:11:44.770Z,33.90
2022-11-25T03:14:11.516Z,34.80
2022-11-25T03:16:38.344Z,34.27
2022-11-25T03:19:05.213Z,33.07
2022-11-25T03:21:31.928Z,34.93
2022-11-25T03:24:01.004Z,32.77
2022-11-25T03:26:27.713Z,32.17
2022-11-25T03:28:54.672Z,33.40
2022-11-25T03:31:21.487Z,34.37
2022-11-25T03:33:50.360Z,33.43
2022-11-25T03:36:17.124Z,31.27
2022-11-25T03:38:43.809Z,31.90
2022-11-25T03:41:10.502Z,33.30
2022-11-25T03:43:37.249Z,32.90
2022-11-25T03:46:03.988Z,31.83
2022-11-25T03:48:32.033Z,32.43
2022-11-25T03:50:58.757Z,33.20
2022-11-25T03:53:25.516Z,33.33
2022-11-25T03:55:54.333Z,34.67
2022-11-25T03:58:21.018Z,32.43
2022-11-25T04:00:47.722Z,34.20
2022-11-25T04:03:14.482Z,34.03
2022-11-25T04:05:41.796Z,35.10
2022-11-25T04:08:08.535Z,35.17
2022-11-25T04:10:37.559Z,35.97
2022-11-25T04:13:06.767Z,34.50
2022-11-25T04:15:33.531Z,34.33
2022-11-25T04:18:00.251Z,34.90
2022-11-25T04:20:29.237Z,35.03
2022-11-25T04:22:55.979Z,35.50
2022-11-25T04:25:24.887Z,34.33
2022-11-25T04:27:51.883Z,34.47
2022-11-25T04:30:18.743Z,33.87
2022-11-25T04:32:47.933Z,35.13
2022-11-25T04:35:14.624Z,34.17
2022-11-25T04:37:43.692Z,33.53
2022-11-25T04:40:13.017Z,35.70
2022-11-25T04:42:39.856Z,32.87
2022-11-25T04:45:33.426Z,33.80
2022-11-25T04:48:00.177Z,32.23
2022-11-25T04:50:31.918Z,33.03
2022-11-25T04:53:01.133Z,34.17
2022-11-25T04:55:27.875Z,33.30
2022-11-25T04:57:56.761Z,32.47
2022-11-25T05:00:26.196Z,34.73
2022-11-25T05:02:55.370Z,31.83
2022-11-25T05:05:22.166Z,32.93
2022-11-25T05:07:48.931Z,30.47
2022-11-25T05:10:15.648Z,30.83
2022-11-25T05:12:42.383Z,30.47
2022-11-25T05:15:09.716Z,31.00
2022-11-25T05:17:36.658Z,29.27
2022-11-25T05:20:05.616Z,30.37
2022-11-25T05:22:32.966Z,32.27
2022-11-25T05:24:59.704Z,30.17
2022-11-25T05:27:26.753Z,29.37
2022-11-25T05:29:56.119Z,28.17
2022-11-25T05:32:23.237Z,29.53
2022-11-25T05:34:49.912Z,27.53
2022-11-25T05:37:24.159Z,28.10
2022-11-25T05:39:53.877Z,28.17
2022-11-25T05:42:20.596Z,27.50
2022-11-25T05:44:47.296Z,27.03
2022-11-25T05:47:14.006Z,27.40
2022-11-25T05:49:40.775Z,27.20
2022-11-25T05:52:07.544Z,26.57
2022-11-25T05:54:36.856Z,28.20
2022-11-25T05:57:03.718Z,28.13
2022-11-25T05:59:30.464Z,27.60
2022-11-25T06:01:57.183Z,27.03
2022-11-25T06:04:23.953Z,27.80
2022-11-25T06:06:50.649Z,26.00
2022-11-25T06:09:19.580Z,29.80
2022-11-25T06:11:48.661Z,28.03
2022-11-25T06:14:17.822Z,27.77
2022-11-25T06:16:44.597Z,26.93
2022-11-25T06:19:11.302Z,29.10
2022-11-25T06:21:37.983Z,29.17
2022-11-25T06:24:04.941Z,29.87
2022-11-25T06:26:31.623Z,29.13
2022-11-25T06:29:00.773Z,31.17
2022-11-25T06:31:27.650Z,30.63
2022-11-25T06:33:54.590Z,30.33
2022-11-25T06:36:21.857Z,29.10
2022-11-25T06:38:52.939Z,28.87
2022-11-25T06:41:20.208Z,29.07
2022-11-25T06:43:46.952Z,29.13
2022-11-25T06:46:19.678Z,28.03
2022-11-25T06:48:49.675Z,26.80
2022-11-25T06:51:19.095Z,27.77
2022-11-25T06:53:45.909Z,27.97
2022-11-25T06:56:17.764Z,29.30
2022-11-25T06:58:47.263Z,28.33
2022-11-25T07:01:17.028Z,29.60
2022-11-25T07:03:44.094Z,30.10
2022-11-25T07:06:12.434Z,28.40
2022-11-25T07:08:39.179Z,29.43
2022-11-25T07:11:18.829Z,29.50
2022-11-25T07:13:46.076Z,30.20
2022-11-25T07:16:12.922Z,31.27
2022-11-25T07:18:42.111Z,29.87
2022-11-25T07:21:10.299Z,29.63
2022-11-25T07:23:37.353Z,31.00
2022-11-25T07:26:14.309Z,31.17
2022-11-25T07:28:41.212Z,29.67
2022-11-25T07:31:24.239Z,31.10
2022-11-25T07:33:57.311Z,32.17
2022-11-25T07:36:26.912Z,28.40
2022-11-25T07:38:53.630Z,29.10
2022-11-25T07:41:23.830Z,29.97
2022-11-25T07:43:52.675Z,28.50
2022-11-25T07:46:26.789Z,28.53
2022-11-25T07:48:55.339Z,28.80
2022-11-25T07:51:24.179Z,28.63
2022-11-25T07:53:51.124Z,28.80
2022-11-25T07:56:22.637Z,27.83
2022-11-25T07:58:51.644Z,28.10
2022-11-25T08:01:19.073Z,29.33
2022-11-25T08:03:46.781Z,28.90
2022-11-25T08:06:15.051Z,29.20
2022-11-25T08:08:42.398Z,27.60
2022-11-25T08:11:13.779Z,27.93
2022-11-25T08:13:42.976Z,28.93
2022-11-25T08:16:10.441Z,27.63
2022-11-25T08:18:37.181Z,30.43
2022-11-25T08:21:05.440Z,29.93
2022-11-25T08:23:32.721Z,29.57
2022-11-25T08:26:07.192Z,29.23
2022-11-25T08:28:36.553Z,30.37
2022-11-25T08:31:07.679Z,31.03
2022-11-25T08:33:34.439Z,30.03
2022-11-25T08:36:04.159Z,32.10
2022-11-25T08:38:30.964Z,31.53
2022-11-25T08:40:57.830Z,31.03
2022-11-25T08:43:29.243Z,30.13
2022-11-25T08:45:56.578Z,31.30
2022-11-25T08:48:23.567Z,32.47
2022-11-25T08:50:53.062Z,32.30
2022-11-25T08:53:20.135Z,33.77
2022-11-25T08:55:46.788Z,32.67
2022-11-25T08:58:13.563Z,31.43
2022-11-25T09:00:41.233Z,32.70
2022-11-25T09:03:08.144Z,31.30
2022-11-25T09:05:36.210Z,32.40
2022-11-25T09:08:03.715Z,33.10
2022-11-25T09:10:30.762Z,32.83
2022-11-25T09:13:00.261Z,33.37
2022-11-25T09:15:27.187Z,31.83
2022-11-25T09:18:03.459Z,34.03
2022-11-25T09:20:30.210Z,33.63
2022-11-25T09:23:01.135Z,32.43
2022-11-25T09:25:28.178Z,33.93
2022-11-25T09:27:57.733Z,34.20
2022-11-25T09:30:24.833Z,33.03
2022-11-25T09:32:52.677Z,34.57
2022-11-25T09:35:19.536Z,34.13
2022-11-25T09:37:48.734Z,32.80
2022-11-25T09:40:26.431Z,34.77
2022-11-25T09:43:27.487Z,33.67
2022-11-25T09:46:35.583Z,32.03
2022-11-25T09:49:07.888Z,32.23
2022-11-25T09:51:57.603Z,33.37
2022-11-25T09:54:30.605Z,33.90
2022-11-25T09:57:18.716Z,33.37
2022-11-25T09:59:51.908Z,32.73
2022-11-25T10:02:40.056Z,34.87
2022-11-25T10:05:19.365Z,33.60
2022-11-25T10:07:51.073Z,33.03
2022-11-25T10:10:26.014Z,33.77
2022-11-25T10:12:53.815Z,32.00
2022-11-25T10:15:27.535Z,32.73
2022-11-25T10:18:03.227Z,30.47
2022-11-25T10:20:33.090Z,31.17
2022-11-25T10:23:15.994Z,34.33
2022-11-25T10:25:46.127Z,32.13
2022-11-25T10:28:23.841Z,31.67
2022-11-25T10:30:51.125Z,30.53
2022-11-25T10:33:34.527Z,31.90
2022-11-25T10:36:06.118Z,33.63
2022-11-25T10:38:41.974Z,32.93
2022-11-25T10:41:15.913Z,35.00
2022-11-25T10:43:42.784Z,31.97
2022-11-25T10:46:49.682Z,34.30
2022-11-25T10:49:24.876Z,33.37
2022-11-25T10:51:51.634Z,32.33
2022-11-25T10:54:28.309Z,31.90
2022-11-25T10:56:59.796Z,30.70
2022-11-25T10:59:37.688Z,29.90
2022-11-25T11:02:19.341Z,32.47
2022-11-25T11:04:56.445Z,31.47
2022-11-25T11:07:23.622Z,30.47
2022-11-25T11:09:50.639Z,30.27
2022-11-25T11:12:24.611Z,30.90
2022-11-25T11:15:14.214Z,31.30
2022-11-25T11:17:43.012Z,32.10
2022-11-25T11:20:09.658Z,31.17
2022-11-25T11:22:39.299Z,30.23
2022-11-25T11:25:30.244Z,32.80
2022-11-25T11:27:57.222Z,33.53
2022-11-25T11:30:31.133Z,31.03
2022-11-25T11:33:28.116Z,31.40
2022-11-25T11:35:58.311Z,29.90
2022-11-25T11:38:30.812Z,31.23
2022-11-25T11:41:08.386Z,30.77
2022-11-25T11:43:56.570Z,32.33
2022-11-25T11:46:49.249Z,31.50
2022-11-25T11:49:30.718Z,28.87
2022-11-25T11:52:31.152Z,30.87
2022-11-25T11:55:40.604Z,31.37
2022-11-25T11:58:19.243Z,29.57
2022-11-25T12:01:15.477Z,32.37
2022-11-25T12:03:53.184Z,31.97
2022-11-25T12:06:23.803Z,31.20
2022-11-25T12:08:52.816Z,31.43
2022-11-25T12:11:32.833Z,32.67
2022-11-25T12:14:20.093Z,32.80
2022-11-25T12:16:48.596Z,31.87
2022-11-25T12:19:30.008Z,33.90
2022-11-25T12:22:03.910Z,33.27
2022-11-25T12:24:54.374Z,33.83
2022-11-25T12:27:23.960Z,34.40
2022-11-25T12:29:55.908Z,32.43
2022-11-25T12:32:50.504Z,34.37
2022-11-25T12:35:37.422Z,34.40
2022-11-25T12:38:18.216Z,34.50
2022-11-25T12:40:50.232Z,33.00
2022-11-25T12:43:44.971Z,35.67
2022-11-25T12:46:34.549Z,34.70
2022-11-25T12:49:01.423Z,35.60
2022-11-25T12:51:41.569Z,35.07
2022-11-25T12:54:08.248Z,35.07
2022-11-25T12:57:01.502Z,38.20
2022-11-25T12:59:43.562Z,38.70
2022-11-25T13:02:45.311Z,37.03
2022-11-25T13:05:51.944Z,38.33
2022-11-25T13:08:56.365Z,37.73
2022-11-25T13:12:01.246Z,38.27
2022-11-25T13:14:49.805Z,38.27
2022-11-25T13:17:17.221Z,37.17
2022-11-25T13:19:44.294Z,36.80
2022-11-25T13:22:29.838Z,38.10
2022-11-25T13:24:57.724Z,39.80
2022-11-25T13:27:33.383Z,40.20
2022-11-25T13:30:02.576Z,38.60
2022-11-25T13:32:31.381Z,37.93
2022-11-25T13:35:24.564Z,39.57
2022-11-25T13:37:51.350Z,37.57
2022-11-25T13:40:31.058Z,40.37
2022-11-25T13:43:00.351Z,37.80
2022-11-25T13:45:30.994Z,40.63
2022-11-25T13:48:22.884Z,39.37
2022-11-25T13:51:10.708Z,36.93
2022-11-25T13:53:37.949Z,39.03
2022-11-25T13:56:28.842Z,37.43
2022-11-25T13:59:10.617Z,37.93
2022-11-25T14:01:52.897Z,38.23
2022-11-25T14:04:42.531Z,36.43
2022-11-25T14:07:20.034Z,38.37
2022-11-25T14:10:08.978Z,40.87
2022-11-25T14:12:36.131Z,36.33
2022-11-25T14:15:21.384Z,37.50
2022-11-25T14:17:54.203Z,37.53
2022-11-25T14:20:39.555Z,37.70
2022-11-25T14:23:31.260Z,37.43
2022-11-25T14:26:06.100Z,36.57
2022-11-25T14:28:58.483Z,34.60
2022-11-25T14:31:34.513Z,36.83
2022-11-25T14:34:04.226Z,38.67
2022-11-25T14:36:53.719Z,38.93
2022-11-25T14:39:45.985Z,38.90
2022-11-25T14:42:14.703Z,38.87
2022-11-25T14:44:52.574Z,39.77
2022-11-25T14:47:23.891Z,38.20
2022-11-25T14:50:33.849Z,41.97
2022-11-25T14:52:44.642Z,40.23
2022-11-25T14:55:13.968Z,38.87
2022-11-25T14:57:43.823Z,38.73
2022-11-25T15:00:15.626Z,39.50
2022-11-25T15:02:59.845Z,39.57
2022-11-25T15:05:41.038Z,39.43
2022-11-25T15:08:15.038Z,39.93
2022-11-25T15:10:56.207Z,40.30
2022-11-25T15:13:33.036Z,38.67
2022-11-25T15:16:24.094Z,40.00
2022-11-25T15:18:52.075Z,39.97
2022-11-25T15:21:31.989Z,41.17
2022-11-25T15:23:58.729Z,41.37
2022-11-25T15:26:27.467Z,40.80
2022-11-25T15:28:58.791Z,41.23
2022-11-25T15:31:32.169Z,39.47
2022-11-25T15:34:03.572Z,40.37
2022-11-25T15:36:30.761Z,39.90
2022-11-25T15:39:13.325Z,41.07
2022-11-25T15:41:42.610Z,42.63
2022-11-25T15:44:25.274Z,41.07
2022-11-25T15:47:00.958Z,38.43
2022-11-25T15:49:30.287Z,38.77
2022-11-25T15:51:58.119Z,42.20
2022-11-25T15:54:39.447Z,38.63
2022-11-25T15:57:37.308Z,38.30
2022-11-25T16:00:17.315Z,39.17
2022-11-25T16:02:44.479Z,38.60
2022-11-25T16:05:14.529Z,40.70
2022-11-25T16:07:52.703Z,40.87
2022-11-25T16:10:27.672Z,40.43
2022-11-25T16:13:28.137Z,39.83
2022-11-25T16:16:20.719Z,37.50
2022-11-25T16:19:05.010Z,37.90
2022-11-25T16:21:39.774Z,39.70
2022-11-25T16:24:06.936Z,37.50
2022-11-25T16:26:36.950Z,39.00
2022-11-25T16:29:14.466Z,39.67
2022-11-25T16:31:41.873Z,38.33
2022-11-25T16:34:19.053Z,39.97
2022-11-25T16:36:46.266Z,38.50
2022-11-25T16:39:17.782Z,39.63
2022-11-25T16:41:57.384Z,38.50
2022-11-25T16:44:24.882Z,38.73
2022-11-25T16:46:53.868Z,37.33
2022-11-25T16:49:21.289Z,38.93
2022-11-25T16:51:50.705Z,39.70
2022-11-25T16:54:21.103Z,38.37
2022-11-25T16:56:49.981Z,35.43
2022-11-25T16:59:32.011Z,36.80
2022-11-25T17:01:59.906Z,36.10
2022-11-25T17:04:27.195Z,36.13
2022-11-25T17:07:31.165Z,36.77
2022-11-25T17:09:45.293Z,36.50
2022-11-25T17:12:17.096Z,38.80
2022-11-25T17:14:46.528Z,37.07
2022-11-25T17:17:24.488Z,36.13
2022-11-25T17:19:52.288Z,35.87
2022-11-25T17:22:25.226Z,38.27
2022-11-25T17:24:52.412Z,37.47
2022-11-25T17:27:25.717Z,36.97
2022-11-25T17:29:52.937Z,35.93
2022-11-25T17:32:22.648Z,36.20
2022-11-25T17:34:49.887Z,37.93
2022-11-25T17:37:18.451Z,36.23
2022-11-25T17:39:45.630Z,38.03
2022-11-25T17:42:14.191Z,40.23
2022-11-25T17:44:42.241Z,40.17
2022-11-25T17:47:17.213Z,40.20
2022-11-25T17:49:46.709Z,41.10
2022-11-25T17:52:13.638Z,41.03
2022-11-25T17:54:40.658Z,43.10
2022-11-25T17:57:07.753Z,42.47
2022-11-25T17:59:39.244Z,43.37
2022-11-25T18:02:21.029Z,44.17
2022-11-25T18:04:48.008Z,43.63
2022-11-25T18:07:14.883Z,43.00
2022-11-25T18:09:41.749Z,40.30
2022-11-25T18:12:12.954Z,40.70
2022-11-25T18:14:42.826Z,42.27
2022-11-25T18:17:15.907Z,43.70
2022-11-25T18:19:48.655Z,43.13
2022-11-25T18:22:18.963Z,44.27
2022-11-25T18:24:45.919Z,42.07
2022-11-25T18:27:28.862Z,43.13
2022-11-25T18:29:55.798Z,43.30
2022-11-25T18:32:23.595Z,43.97
2022-11-25T18:34:50.536Z,43.53
2022-11-25T18:37:17.299Z,44.03
2022-11-25T18:39:44.019Z,44.67
2022-11-25T18:42:23.193Z,44.23
2022-11-25T18:44:54.645Z,45.60
2022-11-25T18:47:21.345Z,46.83
2022-11-25T18:49:53.874Z,44.07
2022-11-25T18:52:22.568Z,44.87
2022-11-25T18:54:49.702Z,47.17
2022-11-25T18:57:16.458Z,43.90
2022-11-25T18:59:43.172Z,46.77
2022-11-25T19:02:19.099Z,47.60
2022-11-25T19:04:48.078Z,47.33
2022-11-25T19:07:14.805Z,46.97
2022-11-25T19:09:43.762Z,49.03
2022-11-25T19:12:13.537Z,45.90
2022-11-25T19:14:41.727Z,47.03
2022-11-25T19:17:10.233Z,46.87
2022-11-25T19:19:39.319Z,47.47
2022-11-25T19:22:13.779Z,49.77
2022-11-25T19:24:40.567Z,46.93
2022-11-25T19:27:17.446Z,49.23
2022-11-25T19:29:44.253Z,47.53
2022-11-25T19:32:17.715Z,45.90
2022-11-25T19:34:44.915Z,48.03
2022-11-25T19:37:16.414Z,48.87
2022-11-25T19:39:43.122Z,51.03
2022-11-25T19:42:11.115Z,44.93
2022-11-25T19:44:40.407Z,48.60
2022-11-25T19:47:16.689Z,51.10
2022-11-25T19:49:43.466Z,49.67
2022-11-25T19:52:17.814Z,48.97
2022-11-25T19:54:46.667Z,48.97
2022-11-25T19:57:22.186Z,49.47
2022-11-25T19:59:48.957Z,46.40
2022-11-25T20:02:23.274Z,49.00
2022-11-25T20:04:51.421Z,49.73
2022-11-25T20:07:19.060Z,49.20
2022-11-25T20:09:47.973Z,51.07
2022-11-25T20:12:22.850Z,51.73
2022-11-25T20:14:50.181Z,47.93
2022-11-25T20:17:32.647Z,50.60
2022-11-25T20:20:04.317Z,48.87
2022-11-25T20:22:34.939Z,48.40
2022-11-25T20:25:02.456Z,49.83
2022-11-25T20:27:29.330Z,49.70
2022-11-25T20:29:58.907Z,52.33
2022-11-25T20:32:27.792Z,52.97
2022-11-25T20:34:57.203Z,53.07
2022-11-25T20:37:28.162Z,52.63
2022-11-25T20:39:58.931Z,55.37
2022-11-25T20:42:25.638Z,53.67
2022-11-25T20:44:57.206Z,53.60
2022-11-25T20:47:27.407Z,55.77
2022-11-25T20:49:54.199Z,56.53
2022-11-25T20:52:28.439Z,54.00
2022-11-25T20:54:55.169Z,54.67
2022-11-25T20:57:24.002Z,53.47
2022-11-25T20:59:53.195Z,54.47
2022-11-25T21:02:21.635Z,54.13
2022-11-25T21:04:50.940Z,50.67
2022-11-25T21:07:18.046Z,49.60
2022-11-25T21:09:47.073Z,51.40
2022-11-25T21:12:18.821Z,51.87
2022-11-25T21:14:46.466Z,52.47
2022-11-25T21:17:13.171Z,53.03
2022-11-25T21:19:42.118Z,51.60
2022-11-25T21:22:13.010Z,51.37
2022-11-25T21:24:43.144Z,52.20
2022-11-25T21:27:14.065Z,50.90
2022-11-25T21:29:41.899Z,50.27
2022-11-25T21:32:27.865Z,46.97
2022-11-25T21:34:55.050Z,46.27
2022-11-25T21:37:31.203Z,47.37
2022-11-25T21:39:58.645Z,45.90
2022-11-25T21:42:25.821Z,46.67
2022-11-25T21:44:52.997Z,47.37
2022-11-25T21:47:23.877Z,48.87
2022-11-25T21:49:51.261Z,47.10
2022-11-25T21:52:18.729Z,47.90
2022-11-25T21:54:45.860Z,47.10
2022-11-25T21:57:23.151Z,47.53
2022-11-25T21:59:50.255Z,45.57
2022-11-25T22:02:23.453Z,46.13
2022-11-25T22:04:53.350Z,46.43
2022-11-25T22:07:20.647Z,49.83
2022-11-25T22:09:50.265Z,49.40
2022-11-25T22:12:31.086Z,45.77
2022-11-25T22:14:58.615Z,44.10
2022-11-25T22:17:28.260Z,47.07
2022-11-25T22:19:55.580Z,44.47
2022-11-25T22:22:24.501Z,45.07
2022-11-25T22:24:51.608Z,44.67
2022-11-25T22:27:25.987Z,43.73
2022-11-25T22:29:53.082Z,43.37
2022-11-25T22:32:20.193Z,46.87
2022-11-25T22:34:51.537Z,43.90
2022-11-25T22:37:22.115Z,47.13
2022-11-25T22:39:53.400Z,47.30
2022-11-25T22:42:20.523Z,45.87
2022-11-25T22:44:48.020Z,43.20
2022-11-25T22:47:30.646Z,46.17
2022-11-25T22:49:57.813Z,48.13
2022-11-25T22:52:29.229Z,49.47
2022-11-25T22:54:59.128Z,48.43
2022-11-25T22:57:26.256Z,47.33
2022-11-25T22:59:52.973Z,49.47
2022-11-25T23:02:21.665Z,49.43
2022-11-25T23:04:52.136Z,49.23
2022-11-25T23:07:20.089Z,47.83
2022-11-25T23:09:47.305Z,50.00
2022-11-25T23:12:14.689Z,47.93
2022-11-25T23:14:41.763Z,51.00
2022-11-25T23:17:17.803Z,50.80
2022-11-25T23:19:45.045Z,49.03
2022-11-25T23:22:12.243Z,50.23
2022-11-25T23:24:46.095Z,50.43
2022-11-25T23:27:16.105Z,51.13
2022-11-25T23:29:42.831Z,52.37
2022-11-25T23:32:16.848Z,52.43
2022-11-25T23:34:43.657Z,52.83
2022-11-25T23:37:15.108Z,53.07
2022-11-25T23:39:41.881Z,52.60
2022-11-25T23:42:18.149Z,52.53
2022-11-25T23:44:45.317Z,51.53
2022-11-25T23:47:17.621Z,51.90
2022-11-25T23:49:45.071Z,50.27
2022-11-25T23:52:27.956Z,51.40
2022-11-25T23:54:54.650Z,52.97
2022-11-25T23:57:23.038Z,50.37
2022-11-25T23:59:49.863Z,50.00
